Miami Beach, Florida
Current Conditions -  °F | °C
As of 2:53 PM on Thursday 30 Oct 2014 (Local Time) from KMIA Reporting Station
Broken Clouds Broken Clouds  
Wind Chill: 82°   Ceiling: 6000
Heat Index: 83°   Visibility: 10mi
Dew Point: 62°   Wind: 5mph
Humidity: 51%   Direction: 130°SE
Pressure: 29.89"   Gusts: NA
Location:  25.81°N, 80.13°W
Report Text: KMIA 301853Z 13004KT 10SM SCT049 BKN060 BKN180 BKN250 28/17 A2989 RMK AO2 SLP122 TCU DSNT E-SE T02780167
Loading
Personal Weather Stations






























Interactive Weather Map
Tropical Storm Tracking
New forecast layout! Learn more

10-Day Weather Forecast

Advertisements
Track Severe Weather on mobile